Time;durP1;ratioP1;P1;durP2;ratioP2;P2;SDS_P1;SDS_P2;PMS_P1;PMS_P2;Temp;Humidity;BMP_temperature;BMP_pressure;BME280_temperature;BME280_humidity;BME280_pressure;Samples;Min_cycle;Max_cycle;Signal;HPM_P1;HPM_P2
2022/03/04 00:00:18;;;;;;;0.50;0.50;;;;;;;-3.43;60.13;98604.63;4862676;29;20109;-88
2022/03/04 00:02:48;;;;;;;0.52;0.52;;;;;;;-3.44;60.40;98605.63;4862292;29;20105;-87
2022/03/04 00:05:15;;;;;;;0.47;0.47;;;;;;;-3.41;60.31;98599.22;4846892;29;20505;-87
2022/03/04 00:07:42;;;;;;;0.40;0.40;;;;;;;-3.43;60.29;98606.47;4861592;29;20054;-87
2022/03/04 00:10:09;;;;;;;0.40;0.40;;;;;;;-3.42;60.29;98608.09;4861718;29;20098;-88
2022/03/04 00:12:38;;;;;;;0.30;0.30;;;;;;;-3.47;60.41;98605.94;4861972;29;20140;-87
2022/03/04 00:15:05;;;;;;;0.40;0.40;;;;;;;-3.50;60.50;98601.81;4860194;29;20105;-88
2022/03/04 00:17:33;;;;;;;0.60;0.60;;;;;;;-3.57;60.53;98602.66;4860936;29;20101;-87
2022/03/04 00:20:00;;;;;;;0.50;0.50;;;;;;;-3.61;60.68;98610.06;4869459;29;20057;-89
2022/03/04 00:22:27;;;;;;;0.60;0.60;;;;;;;-3.61;60.76;98607.44;4876571;29;20068;-87
2022/03/04 00:24:55;;;;;;;0.60;0.60;;;;;;;-3.59;60.63;98608.09;4861964;29;20126;-86
2022/03/04 00:27:22;;;;;;;0.50;0.50;;;;;;;-3.59;60.79;98604.66;4860834;29;20054;-89
2022/03/04 00:29:49;;;;;;;0.70;0.70;;;;;;;-3.57;60.73;98600.84;4861982;29;20049;-88
2022/03/04 00:32:16;;;;;;;0.60;0.60;;;;;;;-3.55;60.87;98592.75;4862487;29;20492;-87
2022/03/04 00:34:43;;;;;;;0.40;0.40;;;;;;;-3.56;60.75;98602.50;4865694;29;20053;-87
2022/03/04 00:37:11;;;;;;;0.50;0.50;;;;;;;-3.61;60.93;98599.53;4860656;29;20049;-85
2022/03/04 00:39:40;;;;;;;0.50;0.50;;;;;;;-3.66;61.05;98601.00;4876905;29;20151;-88
2022/03/04 00:42:07;;;;;;;0.50;0.50;;;;;;;-3.65;61.25;98600.81;4879723;29;20056;-87
2022/03/04 00:44:34;;;;;;;0.60;0.60;;;;;;;-3.62;61.05;98599.66;4880124;29;20061;-87
2022/03/04 00:47:02;;;;;;;0.52;0.52;;;;;;;-3.67;61.33;98589.63;4879685;29;20064;-88
2022/03/04 00:49:32;;;;;;;0.55;0.55;;;;;;;-3.67;61.43;98591.44;4879988;29;20061;-88
2022/03/04 00:52:01;;;;;;;0.50;0.50;;;;;;;-3.69;61.43;98590.78;4879309;29;20053;-88
2022/03/04 00:54:28;;;;;;;0.40;0.40;;;;;;;-3.66;61.23;98588.63;4878151;29;20080;-86
2022/03/04 00:56:58;;;;;;;0.50;0.50;;;;;;;-3.63;61.50;98596.22;4877641;29;20073;-88
2022/03/04 00:59:25;;;;;;;0.50;0.50;;;;;;;-3.66;61.11;98586.00;4879410;29;20105;-88
2022/03/04 01:01:52;;;;;;;0.47;0.47;;;;;;;-3.64;61.33;98594.59;4879356;29;20049;-88
2022/03/04 01:04:20;;;;;;;0.40;0.40;;;;;;;-3.67;61.49;98601.97;4862600;29;20056;-88
2022/03/04 01:06:50;;;;;;;0.50;0.50;;;;;;;-3.76;61.53;98593.25;4879209;29;20573;-87
2022/03/04 01:09:18;;;;;;;0.57;0.57;;;;;;;-3.77;61.61;98589.78;4877944;29;20048;-88
2022/03/04 01:11:45;;;;;;;0.50;0.50;;;;;;;-3.69;61.50;98590.78;4879690;29;20416;-87
2022/03/04 01:14:12;;;;;;;0.45;0.45;;;;;;;-3.70;61.41;98589.94;4879111;29;20468;-88
2022/03/04 01:16:39;;;;;;;0.60;0.60;;;;;;;-3.69;61.30;98586.34;4878136;29;20049;-88
2022/03/04 01:19:08;;;;;;;0.50;0.50;;;;;;;-3.75;61.62;98586.97;4877720;29;20053;-88
2022/03/04 01:21:35;;;;;;;0.43;0.43;;;;;;;-3.80;61.47;98581.34;4862382;29;20105;-88
2022/03/04 01:24:03;;;;;;;0.50;0.50;;;;;;;-3.84;61.81;98577.41;4878931;29;20061;-88
2022/03/04 01:26:30;;;;;;;0.60;0.60;;;;;;;-3.85;61.80;98581.84;4832159;29;20140;-87
2022/03/04 01:28:58;;;;;;;0.52;0.52;;;;;;;-3.82;61.83;98580.69;4878381;29;20056;-87
2022/03/04 01:31:25;;;;;;;0.40;0.40;;;;;;;-3.84;62.06;98577.41;4878717;29;20081;-87
2022/03/04 01:33:56;;;;;;;0.50;0.50;;;;;;;-3.86;62.34;98582.84;4879072;29;20052;-87
2022/03/04 01:36:24;;;;;;;0.50;0.50;;;;;;;-3.84;62.29;98572.16;4877496;29;20055;-88
2022/03/04 01:38:51;;;;;;;0.40;0.40;;;;;;;-3.85;62.48;98570.47;4877157;29;20144;-87
2022/03/04 01:41:18;;;;;;;0.40;0.40;;;;;;;-3.88;62.42;98571.63;4878658;29;20569;-88
2022/03/04 01:43:47;;;;;;;0.57;0.57;;;;;;;-3.88;62.42;98570.81;4877176;29;20500;-88
2022/03/04 01:46:16;;;;;;;0.80;0.80;;;;;;;-3.91;62.42;98566.69;4878455;29;20053;-89
2022/03/04 01:48:45;;;;;;;0.50;0.50;;;;;;;-3.93;62.58;98568.66;4877737;29;20064;-88
2022/03/04 01:51:12;;;;;;;0.50;0.50;;;;;;;-3.98;62.88;98574.41;4878789;29;20059;-88
2022/03/04 01:53:44;;;;;;;0.60;0.60;;;;;;;-3.98;62.77;98566.50;4878232;29;20140;-87
2022/03/04 01:56:13;;;;;;;0.50;0.50;;;;;;;-4.00;62.96;98565.88;4878411;29;20049;-88
2022/03/04 01:58:41;;;;;;;0.50;0.50;;;;;;;-3.98;63.26;98568.31;4877160;29;20056;-88
2022/03/04 02:01:09;;;;;;;0.40;0.40;;;;;;;-4.02;63.07;98570.47;4876870;29;20076;-88
2022/03/04 02:03:36;;;;;;;0.50;0.50;;;;;;;-4.07;63.14;98558.75;4878518;29;20057;-88
2022/03/04 02:06:04;;;;;;;0.50;0.50;;;;;;;-4.05;63.43;98564.69;4878073;29;20547;-88
2022/03/04 02:08:31;;;;;;;0.43;0.43;;;;;;;-4.11;63.51;98560.06;4878647;29;20053;-88
2022/03/04 02:11:00;;;;;;;0.45;0.45;;;;;;;-4.23;63.56;98568.28;4882444;29;20143;-87
2022/03/04 02:13:27;;;;;;;0.40;0.40;;;;;;;-4.23;63.87;98572.72;4881669;29;20060;-88
2022/03/04 02:15:54;;;;;;;0.60;0.60;;;;;;;-4.30;64.06;98567.28;4881528;29;20463;-89
2022/03/04 02:18:27;;;;;;;0.60;0.60;;;;;;;-4.27;64.58;98574.03;4882376;29;20049;-89
2022/03/04 02:20:57;;;;;;;0.40;0.40;;;;;;;-4.32;64.69;98576.31;4882429;29;20068;-88
2022/03/04 02:23:26;;;;;;;0.40;0.40;;;;;;;-4.37;64.67;98585.53;4883287;29;20055;-87
2022/03/04 02:25:53;;;;;;;0.57;0.57;;;;;;;-4.41;64.84;98581.53;4884255;29;20155;-87
2022/03/04 02:28:22;;;;;;;0.73;0.73;;;;;;;-4.44;65.01;98584.50;4881870;29;20054;-89
2022/03/04 02:30:49;;;;;;;0.73;0.73;;;;;;;-4.49;65.14;98575.44;4882338;29;20048;-88
2022/03/04 02:33:19;;;;;;;0.50;0.50;;;;;;;-4.48;65.28;98575.28;4881543;29;20497;-87
2022/03/04 02:35:49;;;;;;;0.60;0.60;;;;;;;-4.47;65.56;98579.56;4880899;29;20077;-88
2022/03/04 02:38:16;;;;;;;0.50;0.50;;;;;;;-4.53;65.61;98572.31;4882106;29;20471;-88
2022/03/04 02:40:46;;;;;;;0.60;0.60;;;;;;;-4.53;65.57;98576.72;4885219;29;20057;-88
2022/03/04 02:43:15;;;;;;;0.50;0.50;;;;;;;-4.57;65.70;98586.75;4897320;29;20057;-89
2022/03/04 02:45:42;;;;;;;0.60;0.60;;;;;;;-4.64;65.52;98586.56;4885184;29;20424;-87
2022/03/04 02:48:12;;;;;;;0.40;0.40;;;;;;;-4.69;66.09;98588.00;4882900;29;20112;-89
2022/03/04 02:50:39;;;;;;;0.50;0.50;;;;;;;-4.78;66.01;98576.63;4880975;29;20057;-86
2022/03/04 02:53:06;;;;;;;0.63;0.63;;;;;;;-4.77;66.25;98575.63;4882717;29;20147;-88
2022/03/04 02:55:33;;;;;;;0.50;0.50;;;;;;;-4.77;66.38;98573.00;4886962;29;20429;-88
2022/03/04 02:58:01;;;;;;;0.40;0.40;;;;;;;-4.73;66.60;98570.91;4889207;29;20087;-89
2022/03/04 03:00:28;;;;;;;0.50;0.50;;;;;;;-4.75;66.46;98572.88;4892221;29;20056;-88
2022/03/04 03:02:57;;;;;;;0.52;0.52;;;;;;;-4.81;66.60;98579.56;4892916;29;20077;-87
2022/03/04 03:05:25;;;;;;;0.70;0.70;;;;;;;-4.92;66.73;98587.72;4892932;29;20056;-88
2022/03/04 03:07:52;;;;;;;0.50;0.50;;;;;;;-4.92;66.87;98599.09;4890241;29;20121;-89
2022/03/04 03:10:19;;;;;;;0.55;0.55;;;;;;;-4.95;67.18;98582.78;4887915;29;20094;-88
2022/03/04 03:12:47;;;;;;;0.63;0.63;;;;;;;-4.96;67.31;98576.72;4885056;29;20121;-88
2022/03/04 03:15:15;;;;;;;0.70;0.70;;;;;;;-4.94;67.25;98579.16;4865686;29;20053;-87
2022/03/04 03:17:42;;;;;;;0.63;0.63;;;;;;;-4.96;67.40;98592.50;4883623;29;20421;-87
2022/03/04 03:20:09;;;;;;;0.50;0.50;;;;;;;-4.97;67.80;98590.84;4884101;29;20044;-88
2022/03/04 03:22:37;;;;;;;0.47;0.47;;;;;;;-5.00;67.71;98591.16;4883809;29;20105;-87
2022/03/04 03:25:04;;;;;;;0.50;0.50;;;;;;;-5.05;67.66;98596.06;4881910;29;20148;-90
2022/03/04 03:27:34;;;;;;;0.52;0.52;;;;;;;-5.05;67.95;98596.06;4884140;29;20084;-88
2022/03/04 03:30:03;;;;;;;0.60;0.60;;;;;;;-5.01;67.99;98600.84;4882434;29;20445;-89
2022/03/04 03:32:33;;;;;;;0.60;0.60;;;;;;;-4.97;68.31;98601.34;4894601;29;20044;-88
2022/03/04 03:35:00;;;;;;;0.55;0.55;;;;;;;-5.00;68.59;98591.16;4904321;29;20077;-88
2022/03/04 03:37:30;;;;;;;0.55;0.55;;;;;;;-4.98;68.67;98594.47;4903197;29;20040;-88
2022/03/04 03:40:00;;;;;;;0.70;0.70;;;;;;;-5.01;68.97;98594.78;4882010;29;20063;-87
2022/03/04 03:42:28;;;;;;;0.50;0.50;;;;;;;-5.02;69.16;98593.91;4901235;29;20161;-89
2022/03/04 03:44:56;;;;;;;0.68;0.68;;;;;;;-5.03;69.25;98597.53;4898177;29;20049;-89
2022/03/04 03:47:25;;;;;;;0.70;0.70;;;;;;;-5.06;69.31;98595.22;4886236;29;20116;-88
2022/03/04 03:49:53;;;;;;;0.57;0.57;;;;;;;-5.12;69.41;98597.66;4885737;29;20440;-90
2022/03/04 03:52:20;;;;;;;0.63;0.63;;;;;;;-5.13;69.59;98609.97;4890642;29;20406;-88
2022/03/04 03:54:47;;;;;;;0.60;0.60;;;;;;;-5.17;69.64;98606.00;4884446;29;20080;-89
2022/03/04 03:57:14;;;;;;;0.60;0.60;;;;;;;-5.23;69.93;98615.34;4884558;29;20154;-89
2022/03/04 03:59:42;;;;;;;0.50;0.50;;;;;;;-5.29;70.05;98615.97;4883866;29;20109;-88
2022/03/04 04:02:09;;;;;;;0.60;0.60;;;;;;;-5.32;70.00;98613.59;4888204;29;20098;-88
2022/03/04 04:04:38;;;;;;;0.70;0.70;;;;;;;-5.34;70.24;98618.22;4883750;29;20080;-89
2022/03/04 04:07:10;;;;;;;0.47;0.47;;;;;;;-5.31;70.46;98624.97;4881733;29;20092;-89
2022/03/04 04:09:38;;;;;;;0.70;0.70;;;;;;;-5.31;70.47;98619.72;4884144;29;20095;-88
2022/03/04 04:12:06;;;;;;;0.70;0.70;;;;;;;-5.34;70.43;98609.47;4884262;29;20080;-88
2022/03/04 04:14:34;;;;;;;0.70;0.70;;;;;;;-5.29;70.56;98618.59;4881980;29;20140;-89
2022/03/04 04:17:02;;;;;;;0.52;0.52;;;;;;;-5.24;70.46;98616.31;4885890;29;20506;-89
2022/03/04 04:19:32;;;;;;;0.57;0.57;;;;;;;-5.25;70.43;98617.28;4886323;29;20469;-90
2022/03/04 04:21:59;;;;;;;0.50;0.50;;;;;;;-5.28;70.74;98614.16;4870486;29;20279;-89
2022/03/04 04:24:27;;;;;;;0.70;0.70;;;;;;;-5.29;70.97;98621.22;4904363;29;20131;-90
2022/03/04 04:26:55;;;;;;;0.55;0.55;;;;;;;-5.31;71.28;98617.91;4892787;29;20081;-87
2022/03/04 04:29:22;;;;;;;0.50;0.50;;;;;;;-5.30;71.46;98624.00;4890288;29;20136;-89
2022/03/04 04:31:50;;;;;;;0.47;0.47;;;;;;;-5.30;71.54;98629.25;4887564;29;20140;-90
2022/03/04 04:34:23;;;;;;;0.88;0.88;;;;;;;-5.35;71.67;98624.44;4889746;29;20136;-89
2022/03/04 04:36:51;;;;;;;0.60;0.60;;;;;;;-5.36;72.01;98633.31;4888515;29;20145;-90
2022/03/04 04:39:18;;;;;;;0.70;0.70;;;;;;;-5.36;72.29;98625.44;4870032;29;20060;-89
2022/03/04 04:41:45;;;;;;;0.43;0.43;;;;;;;-5.41;72.17;98627.69;4886524;29;20060;-89
2022/03/04 04:44:18;;;;;;;0.75;0.75;;;;;;;-5.42;72.58;98627.84;4871556;29;20049;-89
2022/03/04 04:46:48;;;;;;;0.55;0.55;;;;;;;-5.51;72.84;98632.22;4887808;29;20473;-89
2022/03/04 04:49:15;;;;;;;0.65;0.65;;;;;;;-5.55;73.13;98639.56;4880564;29;20049;-88
2022/03/04 04:51:43;;;;;;;0.60;0.60;;;;;;;-5.59;73.84;98643.50;4878232;29;20501;-88
2022/03/04 04:54:10;;;;;;;0.65;0.65;;;;;;;-5.70;74.40;98646.31;4870788;29;20060;-87
2022/03/04 04:56:38;;;;;;;0.90;0.90;;;;;;;-5.77;74.85;98647.88;4882823;29;20048;-89
2022/03/04 04:59:06;;;;;;;0.80;0.80;;;;;;;-5.80;75.08;98656.91;4880796;29;20436;-86
2022/03/04 05:01:33;;;;;;;0.70;0.70;;;;;;;-5.86;75.27;98661.94;4887865;29;20061;-89
2022/03/04 05:04:00;;;;;;;0.73;0.73;;;;;;;-5.92;75.68;98671.25;4900533;29;20126;-88
2022/03/04 05:06:28;;;;;;;0.80;0.80;;;;;;;-5.95;75.96;98679.44;4871154;29;20054;-88
2022/03/04 05:08:58;;;;;;;0.73;0.73;;;;;;;-5.95;76.13;98679.44;4870634;29;20084;-89
2022/03/04 05:11:25;;;;;;;0.68;0.68;;;;;;;-5.98;76.26;98687.63;4880140;29;20057;-87
2022/03/04 05:13:52;;;;;;;0.63;0.63;;;;;;;-5.96;76.63;98683.88;4850230;29;20081;-88
2022/03/04 05:16:21;;;;;;;0.80;0.80;;;;;;;-5.89;76.27;98689.34;4860783;29;20425;-90
2022/03/04 05:18:49;;;;;;;0.70;0.70;;;;;;;-5.83;76.23;98691.38;4875884;29;20442;-89
2022/03/04 05:21:17;;;;;;;0.88;0.88;;;;;;;-5.76;76.27;98696.88;4875426;29;20057;-89
2022/03/04 05:24:03;;;;;;;0.90;0.90;;;;;;;-5.75;76.19;98695.88;4874987;29;20088;-88
2022/03/04 05:26:34;;;;;;;0.80;0.80;;;;;;;-5.59;75.96;98696.06;4870176;29;20067;-90
2022/03/04 05:29:03;;;;;;;0.77;0.77;;;;;;;-5.54;75.66;98708.78;4883888;29;20450;-90
2022/03/04 05:31:32;;;;;;;0.73;0.73;;;;;;;-5.49;75.66;98703.91;4900958;29;20581;-89
2022/03/04 05:34:07;;;;;;;0.65;0.65;;;;;;;-5.36;75.56;98703.53;4880076;29;20052;-88
2022/03/04 05:36:37;;;;;;;0.70;0.70;;;;;;;-5.34;75.34;98706.81;4884226;29;20540;-89
2022/03/04 05:39:04;;;;;;;0.60;0.60;;;;;;;-5.33;75.35;98704.03;4878164;29;20041;-90
2022/03/04 05:41:31;;;;;;;0.75;0.75;;;;;;;-5.29;75.24;98697.50;4874697;29;20124;-91
2022/03/04 05:44:26;;;;;;;0.60;0.60;;;;;;;-5.32;75.44;98710.13;4888171;29;20106;-90
2022/03/04 05:46:56;;;;;;;0.80;0.80;;;;;;;-5.40;75.58;98705.63;4882048;29;20109;-89
2022/03/04 05:49:23;;;;;;;0.70;0.70;;;;;;;-5.37;75.92;98713.19;4880352;29;20060;-93
2022/03/04 05:51:53;;;;;;;0.50;0.50;;;;;;;-5.17;75.67;98713.06;4890272;29;20057;-88
2022/03/04 05:54:25;;;;;;;0.80;0.80;;;;;;;-5.04;75.39;98716.97;4889156;29;20620;-87
2022/03/04 05:56:53;;;;;;;0.80;0.80;;;;;;;-5.02;74.95;98709.72;4881882;29;20057;-87
2022/03/04 05:59:21;;;;;;;0.70;0.70;;;;;;;-5.07;75.38;98713.78;4874399;29;20063;-89
2022/03/04 06:01:57;;;;;;;0.60;0.60;;;;;;;-5.03;75.35;98723.06;4876263;29;20066;-89
2022/03/04 06:04:29;;;;;;;0.60;0.60;;;;;;;-5.11;75.36;98723.00;4877031;29;20071;-89
2022/03/04 06:06:57;;;;;;;0.68;0.68;;;;;;;-5.22;75.49;98724.03;4883504;29;20128;-87
2022/03/04 06:09:28;;;;;;;0.60;0.60;;;;;;;-5.37;76.15;98712.38;4887882;29;20053;-89
2022/03/04 06:11:56;;;;;;;0.70;0.70;;;;;;;-5.29;76.39;98722.97;4877528;29;20069;-86
2022/03/04 06:14:48;;;;;;;0.90;0.90;;;;;;;-5.13;76.32;98722.31;4871566;29;20101;-90
2022/03/04 06:17:24;;;;;;;0.70;0.70;;;;;;;-5.04;76.03;98729.28;4852466;29;20068;-87
2022/03/04 06:19:58;;;;;;;0.73;0.73;;;;;;;-5.05;75.48;98732.91;4854398;29;20088;-90
2022/03/04 06:22:36;;;;;;;0.56;0.56;;;;;;;-5.23;75.27;98720.56;4694969;23;10002547;-89
2022/03/04 06:25:24;;;;;;;0.70;0.70;;;;;;;-5.11;75.69;98725.63;4894714;29;20091;-88
2022/03/04 06:27:58;;;;;;;0.80;0.80;;;;;;;-5.09;75.54;98723.66;4907622;29;20040;-88
2022/03/04 06:30:31;;;;;;;0.65;0.65;;;;;;;-5.17;75.57;98711.25;4886163;29;20462;-89
2022/03/04 06:35:56;;;;;;;0.70;0.70;;;;;;;-5.27;75.73;98721.84;4904720;29;20071;-90
2022/03/04 06:38:28;;;;;;;0.70;0.70;;;;;;;-5.19;75.95;98709.75;4895949;29;20079;-87
2022/03/04 06:40:55;;;;;;;0.85;0.85;;;;;;;-4.95;75.86;98730.19;4910561;29;20056;-88
2022/03/04 06:43:23;;;;;;;0.65;0.65;;;;;;;-4.89;75.76;98738.28;4922074;29;20052;-89
2022/03/04 06:45:50;;;;;;;0.70;0.70;;;;;;;-4.81;75.42;98742.78;4918734;29;20060;-87
2022/03/04 06:48:24;;;;;;;0.68;0.68;;;;;;;-4.85;75.64;98739.66;4917067;29;20801;-87
2022/03/04 06:50:51;;;;;;;0.68;0.68;;;;;;;-4.76;75.50;98732.66;4899401;29;20052;-86
2022/03/04 06:53:18;;;;;;;0.70;0.70;;;;;;;-4.64;74.96;98738.47;4883586;29;20072;-89
2022/03/04 06:55:46;;;;;;;0.70;0.70;;;;;;;-4.62;74.57;98747.06;4899964;29;20052;-88
2022/03/04 06:58:14;;;;;;;0.70;0.70;;;;;;;-4.61;74.67;98739.00;4890599;29;20612;-88
2022/03/04 07:00:42;;;;;;;0.70;0.70;;;;;;;-4.38;74.62;98735.84;4890722;29;20278;-90
2022/03/04 07:03:12;;;;;;;0.80;0.80;;;;;;;-4.22;74.32;98740.41;4896884;29;20079;-90
2022/03/04 07:05:43;;;;;;;0.50;0.50;;;;;;;-4.20;73.60;98744.53;4907159;29;20056;-87
2022/03/04 07:08:11;;;;;;;0.60;0.60;;;;;;;-4.11;73.42;98749.84;4905305;29;20075;-93
2022/03/04 07:10:40;;;;;;;0.70;0.70;;;;;;;-4.00;73.35;98753.03;4899315;29;20075;-91
2022/03/04 07:13:07;;;;;;;0.63;0.63;;;;;;;-4.02;73.14;98756.81;4894727;29;20049;-89
2022/03/04 07:15:36;;;;;;;0.63;0.63;;;;;;;-3.98;73.03;98755.50;4888282;29;20108;-87
2022/03/04 07:18:04;;;;;;;0.70;0.70;;;;;;;-3.83;72.71;98753.09;4902755;29;20565;-91
2022/03/04 07:20:31;;;;;;;0.70;0.70;;;;;;;-3.91;72.15;98748.59;4899223;29;20044;-91
2022/03/04 07:22:58;;;;;;;0.60;0.60;;;;;;;-3.85;72.36;98760.31;4891019;29;20053;-89
2022/03/04 07:25:27;;;;;;;0.60;0.60;;;;;;;-3.77;72.26;98753.28;4907101;29;20085;-85
2022/03/04 07:27:55;;;;;;;0.50;0.50;;;;;;;-3.61;71.78;98764.88;4893589;29;20413;-89
2022/03/04 07:30:25;;;;;;;0.40;0.40;;;;;;;-3.62;71.17;98760.56;4873489;29;20049;-90
2022/03/04 07:32:54;;;;;;;0.52;0.52;;;;;;;-3.66;71.69;98768.00;4901789;29;20052;-88
2022/03/04 07:35:24;;;;;;;0.55;0.55;;;;;;;-3.71;71.46;98759.72;4900640;29;20067;-91
2022/03/04 07:37:51;;;;;;;0.60;0.60;;;;;;;-3.74;71.42;98760.88;4869432;29;20056;-88
2022/03/04 07:40:19;;;;;;;0.52;0.52;;;;;;;-3.75;71.51;98756.59;4865713;29;20163;-85
2022/03/04 07:42:46;;;;;;;0.60;0.60;;;;;;;-3.60;71.40;98763.88;4880995;29;20045;-86
2022/03/04 07:45:14;;;;;;;0.60;0.60;;;;;;;-3.44;71.03;98771.03;4881668;29;20060;-83
2022/03/04 07:47:43;;;;;;;0.63;0.63;;;;;;;-3.37;70.58;98766.75;4888016;29;20139;-89
2022/03/04 07:50:14;;;;;;;0.43;0.43;;;;;;;-3.45;70.04;98767.56;4875128;29;20307;-87
2022/03/04 07:52:42;;;;;;;0.50;0.50;;;;;;;-3.47;70.20;98768.72;4900987;29;20120;-86
2022/03/04 07:55:16;;;;;;;0.57;0.57;;;;;;;-3.39;70.21;98764.28;4878934;29;20060;-87
2022/03/04 07:57:46;;;;;;;0.60;0.60;;;;;;;-3.41;69.87;98765.44;4874657;29;20516;-84
2022/03/04 08:00:15;;;;;;;0.50;0.50;;;;;;;-3.22;69.73;98765.13;4907483;29;20048;-86
2022/03/04 08:02:43;;;;;;;0.60;0.60;;;;;;;-3.19;69.24;98764.84;4902298;29;20056;-84
2022/03/04 08:05:12;;;;;;;0.60;0.60;;;;;;;-3.35;68.99;98755.06;4905773;29;20052;-88
2022/03/04 08:07:43;;;;;;;0.60;0.60;;;;;;;-3.45;69.42;98754.38;4897552;29;20109;-86
2022/03/04 08:10:13;;;;;;;0.70;0.70;;;;;;;-3.36;69.58;98763.16;4874715;29;20448;-84
2022/03/04 08:12:40;;;;;;;0.55;0.55;;;;;;;-3.25;69.16;98760.19;4881797;29;20480;-86
2022/03/04 08:15:10;;;;;;;0.60;0.60;;;;;;;-3.09;68.36;98754.09;4894278;29;20049;-88
2022/03/04 08:17:40;;;;;;;0.60;0.60;;;;;;;-3.20;68.12;98755.25;4882595;29;20501;-86
2022/03/04 08:20:08;;;;;;;0.50;0.50;;;;;;;-3.25;68.37;98749.63;4895485;29;20053;-87
2022/03/04 08:22:36;;;;;;;0.57;0.57;;;;;;;-2.85;68.06;98753.31;4890471;29;20548;-88
2022/03/04 08:25:06;;;;;;;0.60;0.60;;;;;;;-2.73;67.58;98753.81;4868417;29;20052;-88
2022/03/04 08:27:38;;;;;;;0.50;0.50;;;;;;;-2.79;67.54;98743.88;4893435;29;20059;-89
2022/03/04 08:30:10;;;;;;;0.60;0.60;;;;;;;-2.68;67.19;98754.97;4879297;29;20134;-85
2022/03/04 08:32:38;;;;;;;0.77;0.77;;;;;;;-2.65;67.44;98759.91;4914291;29;20044;-88
2022/03/04 08:35:09;;;;;;;0.50;0.50;;;;;;;-2.50;66.97;98757.44;4882513;29;20068;-92
2022/03/04 08:37:37;;;;;;;0.70;0.70;;;;;;;-2.62;66.58;98764.84;4901807;29;20063;-89
2022/03/04 08:40:11;;;;;;;0.60;0.60;;;;;;;-2.69;66.82;98757.75;4902810;29;20075;-87
2022/03/04 08:42:41;;;;;;;0.60;0.60;;;;;;;-2.58;66.70;98768.00;4873512;29;20143;-85
2022/03/04 08:45:09;;;;;;;0.47;0.47;;;;;;;-2.52;66.82;98767.31;4893522;29;20045;-89
2022/03/04 08:47:44;;;;;;;0.50;0.50;;;;;;;-2.34;66.49;98759.22;4886467;29;20052;-86
2022/03/04 08:50:15;;;;;;;0.57;0.57;;;;;;;-2.07;65.82;98751.91;4900259;29;20063;-87
2022/03/04 08:52:42;;;;;;;0.60;0.60;;;;;;;-1.99;64.53;98741.28;4870171;29;20053;-87
2022/03/04 08:55:15;;;;;;;0.73;0.73;;;;;;;-2.30;65.36;98734.09;4872032;29;20082;-88
2022/03/04 08:57:44;;;;;;;0.57;0.57;;;;;;;-1.93;65.61;98760.94;4900756;29;20049;-88
2022/03/04 09:00:16;;;;;;;0.60;0.60;;;;;;;-2.03;64.70;98740.78;4899852;29;20049;-87
2022/03/04 09:02:44;;;;;;;0.80;0.80;;;;;;;-2.07;64.91;98765.94;4871733;29;20136;-89
2022/03/04 09:05:12;;;;;;;0.45;0.45;;;;;;;-2.18;64.84;98761.00;4889168;29;20535;-88
2022/03/04 09:07:40;;;;;;;0.60;0.60;;;;;;;-2.16;65.29;98753.72;4904690;29;20096;-88
2022/03/04 09:10:08;;;;;;;0.60;0.60;;;;;;;-2.15;65.00;98762.47;4885999;29;20487;-89
2022/03/04 09:12:35;;;;;;;0.77;0.77;;;;;;;-1.90;64.97;98756.13;4885802;29;20071;-88
2022/03/04 09:15:04;;;;;;;0.50;0.50;;;;;;;-1.66;64.40;98749.09;4918691;29;20103;-84
2022/03/04 09:17:34;;;;;;;0.50;0.50;;;;;;;-1.54;63.75;98758.31;4898184;29;20058;-86
2022/03/04 09:20:04;;;;;;;0.77;0.77;;;;;;;-1.37;63.42;98759.03;4882634;29;20700;-85
2022/03/04 09:22:31;;;;;;;0.60;0.60;;;;;;;-1.29;62.74;98753.72;4891604;29;20112;-85
2022/03/04 09:24:59;;;;;;;0.60;0.60;;;;;;;-1.47;62.49;98750.47;4905920;29;20104;-84
2022/03/04 09:27:29;;;;;;;0.65;0.65;;;;;;;-1.64;62.68;98752.41;4893648;29;20062;-85
2022/03/04 09:29:56;;;;;;;0.63;0.63;;;;;;;-1.76;63.19;98763.34;4907638;29;20534;-85
2022/03/04 09:32:29;;;;;;;0.73;0.73;;;;;;;-1.79;63.06;98754.94;4886646;29;20139;-85
2022/03/04 09:34:56;;;;;;;0.70;0.70;;;;;;;-1.57;62.72;98745.41;4874855;29;20051;-85
2022/03/04 09:37:24;;;;;;;0.80;0.80;;;;;;;-1.28;62.76;98751.88;4880636;29;20082;-83
2022/03/04 09:39:51;;;;;;;0.77;0.77;;;;;;;-1.07;61.53;98751.25;4903929;29;20048;-83
2022/03/04 09:42:21;;;;;;;0.52;0.52;;;;;;;-1.26;61.47;98756.00;4906430;29;20143;-82
2022/03/04 09:44:59;;;;;;;0.70;0.70;;;;;;;-1.15;61.96;98741.53;4895523;29;20108;-83
2022/03/04 09:47:30;;;;;;;0.75;0.75;;;;;;;-0.90;61.52;98743.00;4892243;29;20420;-82
2022/03/04 09:49:58;;;;;;;0.65;0.65;;;;;;;-0.99;61.00;98736.09;4911489;29;20048;-85
2022/03/04 09:52:26;;;;;;;0.52;0.52;;;;;;;-0.89;61.49;98744.66;4904486;29;20467;-84
2022/03/04 09:54:55;;;;;;;0.73;0.73;;;;;;;-0.45;60.80;98741.28;4916761;29;20139;-86
2022/03/04 09:57:24;;;;;;;0.60;0.60;;;;;;;-0.19;59.95;98718.81;4902282;29;20052;-84
2022/03/04 09:59:51;;;;;;;0.73;0.73;;;;;;;0.02;59.52;98730.53;4911159;29;20072;-84
2022/03/04 10:02:20;;;;;;;0.60;0.60;;;;;;;-0.34;59.30;98737.38;4902597;29;20064;-87
2022/03/04 10:04:57;;;;;;;0.73;0.73;;;;;;;-0.65;60.17;98734.84;4880161;29;20052;-86
2022/03/04 10:07:25;;;;;;;0.77;0.77;;;;;;;-0.13;59.76;98746.44;4910538;29;20065;-83
2022/03/04 10:09:57;;;;;;;0.70;0.70;;;;;;;0.26;58.98;98732.91;4895504;29;20432;-84
2022/03/04 10:12:28;;;;;;;0.90;0.90;;;;;;;0.55;57.79;98733.88;4911779;29;20048;-85
2022/03/04 10:15:04;;;;;;;0.82;0.82;;;;;;;0.85;57.33;98735.41;4896336;29;20075;-85
2022/03/04 10:17:35;;;;;;;0.80;0.80;;;;;;;0.59;56.76;98735.97;4905551;29;20087;-83
2022/03/04 10:20:14;;;;;;;1.25;1.20;;;;;;;0.99;56.44;98722.28;4897447;29;20451;-84
2022/03/04 10:22:45;;;;;;;0.90;0.90;;;;;;;1.41;55.32;98731.22;4911181;29;20100;-86
2022/03/04 10:25:24;;;;;;;0.90;0.90;;;;;;;1.46;54.12;98726.16;4916124;29;20059;-84
2022/03/04 10:28:10;;;;;;;0.70;0.70;;;;;;;1.48;54.58;98729.47;4899461;29;20075;-86
2022/03/04 10:30:49;;;;;;;0.82;0.82;;;;;;;1.35;54.26;98724.03;4882265;29;20137;-88
2022/03/04 10:33:22;;;;;;;0.90;0.90;;;;;;;0.88;54.67;98723.59;4878462;29;20076;-85
2022/03/04 10:36:10;;;;;;;0.77;0.77;;;;;;;0.34;55.78;98727.50;4890961;29;20052;-85
2022/03/04 10:38:41;;;;;;;0.90;0.90;;;;;;;0.04;57.48;98731.19;4887013;29;20182;-86
2022/03/04 10:41:25;;;;;;;1.00;1.00;;;;;;;0.61;56.60;98733.94;4892063;29;20077;-86
2022/03/04 10:43:53;;;;;;;0.90;0.90;;;;;;;0.91;55.76;98727.72;4923546;29;20512;-84
2022/03/04 10:46:21;;;;;;;1.00;1.00;;;;;;;0.82;55.44;98733.16;4917306;29;20111;-85
2022/03/04 10:48:59;;;;;;;0.82;0.82;;;;;;;0.57;55.60;98726.53;4922296;29;20139;-85
2022/03/04 10:51:34;;;;;;;0.90;0.90;;;;;;;0.42;56.24;98714.09;4884667;29;20055;-85
2022/03/04 10:54:12;;;;;;;;;;;;;;;0.43;55.57;98718.44;4901608;29;20052;-86
2022/03/04 10:56:55;;;;;;;0.70;0.70;;;;;;;0.49;56.81;98716.03;4915090;29;20375;-85
2022/03/04 10:59:25;;;;;;;0.85;0.85;;;;;;;1.05;55.90;98719.69;4903062;29;20059;-85
2022/03/04 11:01:55;;;;;;;0.63;0.63;;;;;;;1.30;54.41;98717.44;4917440;29;20123;-86
2022/03/04 11:04:25;;;;;;;0.88;0.88;;;;;;;0.79;55.32;98709.63;4899396;29;20110;-84
2022/03/04 11:06:52;;;;;;;0.70;0.70;;;;;;;0.85;55.75;98714.16;4916643;29;20052;-84
2022/03/04 11:09:27;;;;;;;0.70;0.70;;;;;;;0.93;55.81;98712.41;4916990;29;20056;-85
2022/03/04 11:11:55;;;;;;;0.77;0.77;;;;;;;0.73;55.80;98701.56;4911038;29;20067;-85
2022/03/04 11:14:23;;;;;;;0.90;0.90;;;;;;;0.34;56.41;98711.56;4898796;29;20080;-83
2022/03/04 11:16:51;;;;;;;0.85;0.85;;;;;;;0.28;56.91;98714.97;4901317;29;20115;-84
2022/03/04 11:19:19;;;;;;;0.73;0.73;;;;;;;0.22;56.90;98705.09;4921067;29;20056;-85
2022/03/04 11:21:46;;;;;;;0.98;0.98;;;;;;;0.41;56.79;98709.81;4878556;29;20320;-84
2022/03/04 11:24:15;;;;;;;0.65;0.65;;;;;;;0.32;56.04;98713.56;4896683;29;20088;-85
2022/03/04 11:26:45;;;;;;;0.80;0.80;;;;;;;0.05;56.99;98717.75;4912433;29;20056;-85
2022/03/04 11:29:33;;;;;;;0.90;0.90;;;;;;;0.12;56.95;98715.97;4903714;29;20109;-84
2022/03/04 11:32:03;;;;;;;0.70;0.70;;;;;;;0.22;57.41;98716.50;4914305;29;20062;-84
2022/03/04 11:34:48;;;;;;;0.90;0.90;;;;;;;0.24;57.08;98703.06;4892553;29;20568;-83
2022/03/04 11:37:23;;;;;;;0.70;0.70;;;;;;;-0.13;57.37;98711.97;4905252;29;20059;-85
2022/03/04 11:40:04;;;;;;;0.60;0.60;;;;;;;-0.07;57.82;98714.72;4886268;29;20048;-85
2022/03/04 11:42:41;;;;;;;0.90;0.90;;;;;;;0.00;57.46;98720.13;4910903;29;20075;-84
2022/03/04 11:45:10;;;;;;;0.90;0.90;;;;;;;0.30;56.51;98718.25;4892256;29;20052;-84
2022/03/04 11:47:44;;;;;;;0.80;0.80;;;;;;;0.87;54.89;98719.31;4901545;29;20059;-86